sensor_id;sensor_type;location;lat;lon;timestamp;P1;durP1;ratioP1;P2;durP2;ratioP2
16820;SDS011;8527;49.740;6.604;2024-03-23T00:55:22;21.70;;;10.07;;
16820;SDS011;8527;49.740;6.604;2024-03-23T01:00:23;25.85;;;11.98;;
16820;SDS011;8527;49.740;6.604;2024-03-23T01:05:28;23.83;;;12.43;;
16820;SDS011;8527;49.740;6.604;2024-03-23T01:10:27;21.33;;;12.07;;
16820;SDS011;8527;49.740;6.604;2024-03-23T01:15:29;26.83;;;12.30;;
16820;SDS011;8527;49.740;6.604;2024-03-23T01:20:30;22.27;;;12.90;;
16820;SDS011;8527;49.740;6.604;2024-03-23T01:25:29;29.00;;;13.13;;
16820;SDS011;8527;49.740;6.604;2024-03-23T01:30:25;23.83;;;12.40;;
16820;SDS011;8527;49.740;6.604;2024-03-23T01:35:24;32.22;;;14.18;;
16820;SDS011;8527;49.740;6.604;2024-03-23T01:40:23;24.63;;;13.38;;
16820;SDS011;8527;49.740;6.604;2024-03-23T01:45:22;29.88;;;14.35;;
16820;SDS011;8527;49.740;6.604;2024-03-23T01:50:18;32.60;;;16.17;;
16820;SDS011;8527;49.740;6.604;2024-03-23T01:55:14;31.67;;;13.63;;
16820;SDS011;8527;49.740;6.604;2024-03-23T02:00:11;24.65;;;12.02;;
16820;SDS011;8527;49.740;6.604;2024-03-23T02:05:10;28.23;;;12.77;;
16820;SDS011;8527;49.740;6.604;2024-03-23T02:10:09;28.20;;;13.30;;
16820;SDS011;8527;49.740;6.604;2024-03-23T02:15:08;20.38;;;10.73;;
16820;SDS011;8527;49.740;6.604;2024-03-23T02:20:04;9.25;;;4.68;;
16820;SDS011;8527;49.740;6.604;2024-03-23T02:25:03;5.65;;;3.55;;
16820;SDS011;8527;49.740;6.604;2024-03-23T02:30:00;6.32;;;3.22;;
16820;SDS011;8527;49.740;6.604;2024-03-23T02:34:56;4.70;;;2.72;;
16820;SDS011;8527;49.740;6.604;2024-03-23T02:39:52;5.50;;;2.47;;
16820;SDS011;8527;49.740;6.604;2024-03-23T02:45:00;3.30;;;1.83;;
16820;SDS011;8527;49.740;6.604;2024-03-23T02:49:59;2.20;;;1.80;;
16820;SDS011;8527;49.740;6.604;2024-03-23T02:55:04;3.10;;;1.60;;
16820;SDS011;8527;49.740;6.604;2024-03-23T03:00:03;2.05;;;1.35;;
16820;SDS011;8527;49.740;6.604;2024-03-23T03:05:05;2.05;;;1.45;;
16820;SDS011;8527;49.740;6.604;2024-03-23T03:10:01;1.63;;;1.52;;
16820;SDS011;8527;49.740;6.604;2024-03-23T03:15:03;3.35;;;1.58;;
16820;SDS011;8527;49.740;6.604;2024-03-23T03:20:04;2.33;;;1.30;;
16820;SDS011;8527;49.740;6.604;2024-03-23T03:25:00;1.83;;;1.33;;
16820;SDS011;8527;49.740;6.604;2024-03-23T03:29:56;1.10;;;1.00;;
16820;SDS011;8527;49.740;6.604;2024-03-23T03:34:55;1.20;;;1.10;;
16820;SDS011;8527;49.740;6.604;2024-03-23T03:39:51;1.20;;;1.10;;
16820;SDS011;8527;49.740;6.604;2024-03-23T03:44:47;1.73;;;1.23;;
16820;SDS011;8527;49.740;6.604;2024-03-23T03:49:43;1.40;;;1.23;;
16820;SDS011;8527;49.740;6.604;2024-03-23T03:54:45;1.52;;;1.40;;
16820;SDS011;8527;49.740;6.604;2024-03-23T03:59:47;2.95;;;1.17;;
16820;SDS011;8527;49.740;6.604;2024-03-23T04:04:46;0.90;;;0.90;;
16820;SDS011;8527;49.740;6.604;2024-03-23T04:09:45;2.50;;;1.40;;
16820;SDS011;8527;49.740;6.604;2024-03-23T04:14:41;1.00;;;0.98;;
16820;SDS011;8527;49.740;6.604;2024-03-23T04:19:37;1.07;;;0.93;;
16820;SDS011;8527;49.740;6.604;2024-03-23T04:24:33;1.30;;;0.82;;
16820;SDS011;8527;49.740;6.604;2024-03-23T04:29:32;0.80;;;0.80;;
16820;SDS011;8527;49.740;6.604;2024-03-23T04:34:28;2.20;;;1.35;;
16820;SDS011;8527;49.740;6.604;2024-03-23T04:39:24;1.77;;;1.38;;
16820;SDS011;8527;49.740;6.604;2024-03-23T04:44:22;1.13;;;0.98;;
16820;SDS011;8527;49.740;6.604;2024-03-23T04:49:21;1.40;;;1.30;;
16820;SDS011;8527;49.740;6.604;2024-03-23T04:54:17;1.35;;;1.25;;
16820;SDS011;8527;49.740;6.604;2024-03-23T04:59:21;1.00;;;0.90;;
16820;SDS011;8527;49.740;6.604;2024-03-23T05:04:16;1.45;;;0.80;;
16820;SDS011;8527;49.740;6.604;2024-03-23T05:09:15;1.20;;;1.10;;
16820;SDS011;8527;49.740;6.604;2024-03-23T05:14:11;1.75;;;0.50;;
16820;SDS011;8527;49.740;6.604;2024-03-23T05:19:14;1.13;;;0.82;;
16820;SDS011;8527;49.740;6.604;2024-03-23T05:24:20;2.40;;;1.30;;
16820;SDS011;8527;49.740;6.604;2024-03-23T05:29:19;1.65;;;1.20;;
16820;SDS011;8527;49.740;6.604;2024-03-23T05:34:16;1.25;;;1.00;;
16820;SDS011;8527;49.740;6.604;2024-03-23T05:39:15;3.13;;;1.42;;
16820;SDS011;8527;49.740;6.604;2024-03-23T05:44:17;2.03;;;1.27;;
16820;SDS011;8527;49.740;6.604;2024-03-23T05:49:22;4.80;;;2.00;;
16820;SDS011;8527;49.740;6.604;2024-03-23T05:54:21;8.13;;;2.22;;
16820;SDS011;8527;49.740;6.604;2024-03-23T05:59:22;8.15;;;2.50;;
16820;SDS011;8527;49.740;6.604;2024-03-23T06:04:18;9.05;;;2.58;;
16820;SDS011;8527;49.740;6.604;2024-03-23T06:09:14;8.60;;;3.03;;
16820;SDS011;8527;49.740;6.604;2024-03-23T06:14:10;8.15;;;3.15;;
16820;SDS011;8527;49.740;6.604;2024-03-23T06:19:08;11.15;;;3.75;;
16820;SDS011;8527;49.740;6.604;2024-03-23T06:24:05;11.63;;;4.03;;
16820;SDS011;8527;49.740;6.604;2024-03-23T06:29:01;11.17;;;3.43;;
16820;SDS011;8527;49.740;6.604;2024-03-23T06:33:57;9.80;;;3.33;;
16820;SDS011;8527;49.740;6.604;2024-03-23T06:38:56;9.43;;;3.55;;
16820;SDS011;8527;49.740;6.604;2024-03-23T06:43:52;8.88;;;3.35;;
16820;SDS011;8527;49.740;6.604;2024-03-23T06:48:47;10.27;;;3.35;;
16820;SDS011;8527;49.740;6.604;2024-03-23T06:53:43;7.63;;;3.72;;
16820;SDS011;8527;49.740;6.604;2024-03-23T06:58:42;7.05;;;3.30;;
16820;SDS011;8527;49.740;6.604;2024-03-23T07:03:40;11.77;;;3.58;;
16820;SDS011;8527;49.740;6.604;2024-03-23T07:08:36;10.18;;;3.45;;
16820;SDS011;8527;49.740;6.604;2024-03-23T07:13:32;12.45;;;3.97;;
16820;SDS011;8527;49.740;6.604;2024-03-23T07:18:30;10.73;;;4.00;;
16820;SDS011;8527;49.740;6.604;2024-03-23T07:23:26;13.13;;;4.90;;
16820;SDS011;8527;49.740;6.604;2024-03-23T07:28:22;16.02;;;4.65;;
16820;SDS011;8527;49.740;6.604;2024-03-23T07:33:21;11.80;;;4.38;;
16820;SDS011;8527;49.740;6.604;2024-03-23T07:38:20;16.15;;;5.30;;
16820;SDS011;8527;49.740;6.604;2024-03-23T07:43:15;11.50;;;5.45;;
16820;SDS011;8527;49.740;6.604;2024-03-23T07:48:11;15.38;;;5.40;;
16820;SDS011;8527;49.740;6.604;2024-03-23T07:53:09;20.08;;;6.05;;
16820;SDS011;8527;49.740;6.604;2024-03-23T07:58:10;19.00;;;5.85;;
16820;SDS011;8527;49.740;6.604;2024-03-23T08:03:09;17.35;;;6.45;;
16820;SDS011;8527;49.740;6.604;2024-03-23T08:08:15;12.77;;;5.90;;
16820;SDS011;8527;49.740;6.604;2024-03-23T08:13:13;16.30;;;6.70;;
16820;SDS011;8527;49.740;6.604;2024-03-23T08:18:13;15.15;;;6.57;;
16820;SDS011;8527;49.740;6.604;2024-03-23T08:23:09;17.03;;;6.40;;
16820;SDS011;8527;49.740;6.604;2024-03-23T08:28:05;29.03;;;6.93;;
16820;SDS011;8527;49.740;6.604;2024-03-23T08:33:05;19.33;;;6.82;;
16820;SDS011;8527;49.740;6.604;2024-03-23T08:38:01;20.20;;;6.47;;
16820;SDS011;8527;49.740;6.604;2024-03-23T08:42:59;15.98;;;5.90;;
16820;SDS011;8527;49.740;6.604;2024-03-23T08:48:09;20.30;;;6.03;;
16820;SDS011;8527;49.740;6.604;2024-03-23T08:53:05;15.18;;;5.25;;
16820;SDS011;8527;49.740;6.604;2024-03-23T08:58:01;20.67;;;5.32;;
16820;SDS011;8527;49.740;6.604;2024-03-23T09:02:57;13.77;;;5.25;;
16820;SDS011;8527;49.740;6.604;2024-03-23T09:08:00;14.07;;;4.90;;
16820;SDS011;8527;49.740;6.604;2024-03-23T09:12:59;10.55;;;4.13;;
16820;SDS011;8527;49.740;6.604;2024-03-23T09:17:54;16.70;;;4.38;;
16820;SDS011;8527;49.740;6.604;2024-03-23T09:22:50;15.52;;;4.30;;
16820;SDS011;8527;49.740;6.604;2024-03-23T09:27:49;12.10;;;4.18;;
16820;SDS011;8527;49.740;6.604;2024-03-23T09:32:45;13.32;;;3.90;;
16820;SDS011;8527;49.740;6.604;2024-03-23T09:37:42;11.65;;;3.55;;
16820;SDS011;8527;49.740;6.604;2024-03-23T09:42:38;13.75;;;3.28;;
16820;SDS011;8527;49.740;6.604;2024-03-23T09:47:36;10.60;;;3.63;;
16820;SDS011;8527;49.740;6.604;2024-03-23T09:52:32;12.57;;;3.60;;
16820;SDS011;8527;49.740;6.604;2024-03-23T09:57:28;12.03;;;4.33;;
16820;SDS011;8527;49.740;6.604;2024-03-23T10:02:24;15.68;;;3.92;;
16820;SDS011;8527;49.740;6.604;2024-03-23T10:07:23;12.00;;;3.75;;
16820;SDS011;8527;49.740;6.604;2024-03-23T10:12:19;13.73;;;3.92;;
16820;SDS011;8527;49.740;6.604;2024-03-23T10:17:16;12.95;;;3.78;;
16820;SDS011;8527;49.740;6.604;2024-03-23T10:22:14;10.55;;;3.75;;
16820;SDS011;8527;49.740;6.604;2024-03-23T10:27:17;11.13;;;3.60;;
16820;SDS011;8527;49.740;6.604;2024-03-23T10:32:16;10.60;;;3.38;;
16820;SDS011;8527;49.740;6.604;2024-03-23T10:37:16;13.23;;;3.00;;
16820;SDS011;8527;49.740;6.604;2024-03-23T10:42:12;9.30;;;2.63;;
16820;SDS011;8527;49.740;6.604;2024-03-23T10:47:10;5.85;;;1.95;;
16820;SDS011;8527;49.740;6.604;2024-03-23T10:52:06;6.32;;;2.17;;
16820;SDS011;8527;49.740;6.604;2024-03-23T10:57:08;4.87;;;1.13;;
16820;SDS011;8527;49.740;6.604;2024-03-23T11:02:17;4.87;;;1.57;;
16820;SDS011;8527;49.740;6.604;2024-03-23T11:07:28;2.78;;;1.05;;
16820;SDS011;8527;49.740;6.604;2024-03-23T11:12:28;3.42;;;1.15;;
16820;SDS011;8527;49.740;6.604;2024-03-23T11:17:28;1.48;;;0.80;;
16820;SDS011;8527;49.740;6.604;2024-03-23T11:27:35;1.10;;;0.70;;
16820;SDS011;8527;49.740;6.604;2024-03-23T11:32:34;4.22;;;0.60;;
16820;SDS011;8527;49.740;6.604;2024-03-23T11:37:30;2.05;;;0.88;;
16820;SDS011;8527;49.740;6.604;2024-03-23T11:42:28;2.53;;;1.20;;
16820;SDS011;8527;49.740;6.604;2024-03-23T11:47:27;3.00;;;1.02;;
16820;SDS011;8527;49.740;6.604;2024-03-23T11:52:26;2.37;;;1.00;;
16820;SDS011;8527;49.740;6.604;2024-03-23T11:57:22;4.90;;;1.38;;
16820;SDS011;8527;49.740;6.604;2024-03-23T12:02:18;4.38;;;1.48;;
16820;SDS011;8527;49.740;6.604;2024-03-23T12:07:14;4.43;;;1.17;;
16820;SDS011;8527;49.740;6.604;2024-03-23T12:12:17;5.60;;;1.77;;
16820;SDS011;8527;49.740;6.604;2024-03-23T12:17:14;6.28;;;1.10;;
16820;SDS011;8527;49.740;6.604;2024-03-23T12:27:18;4.55;;;1.05;;
16820;SDS011;8527;49.740;6.604;2024-03-23T12:32:14;5.30;;;1.50;;
16820;SDS011;8527;49.740;6.604;2024-03-23T12:37:10;2.27;;;0.80;;
16820;SDS011;8527;49.740;6.604;2024-03-23T12:42:09;2.47;;;0.80;;
16820;SDS011;8527;49.740;6.604;2024-03-23T12:47:08;1.45;;;0.80;;
16820;SDS011;8527;49.740;6.604;2024-03-23T12:52:04;3.67;;;0.80;;
16820;SDS011;8527;49.740;6.604;2024-03-23T12:57:00;2.33;;;0.60;;
16820;SDS011;8527;49.740;6.604;2024-03-23T13:01:56;2.22;;;0.82;;
16820;SDS011;8527;49.740;6.604;2024-03-23T13:07:00;3.13;;;0.90;;
16820;SDS011;8527;49.740;6.604;2024-03-23T13:11:58;3.90;;;1.20;;
16820;SDS011;8527;49.740;6.604;2024-03-23T13:16:54;3.45;;;0.88;;
16820;SDS011;8527;49.740;6.604;2024-03-23T13:21:50;5.00;;;1.13;;
16820;SDS011;8527;49.740;6.604;2024-03-23T13:26:48;5.82;;;1.00;;
16820;SDS011;8527;49.740;6.604;2024-03-23T13:31:45;4.05;;;1.13;;
16820;SDS011;8527;49.740;6.604;2024-03-23T13:36:41;2.37;;;0.87;;
16820;SDS011;8527;49.740;6.604;2024-03-23T13:41:37;3.30;;;0.63;;
16820;SDS011;8527;49.740;6.604;2024-03-23T13:46:37;2.67;;;0.70;;
16820;SDS011;8527;49.740;6.604;2024-03-23T13:51:36;5.38;;;1.60;;
16820;SDS011;8527;49.740;6.604;2024-03-23T13:56:32;7.00;;;0.70;;
16820;SDS011;8527;49.740;6.604;2024-03-23T14:01:28;8.38;;;1.00;;
16820;SDS011;8527;49.740;6.604;2024-03-23T14:06:26;4.85;;;1.05;;
16820;SDS011;8527;49.740;6.604;2024-03-23T14:11:22;2.03;;;0.57;;
16820;SDS011;8527;49.740;6.604;2024-03-23T14:16:18;3.00;;;0.85;;
16820;SDS011;8527;49.740;6.604;2024-03-23T14:21:14;3.33;;;0.80;;
16820;SDS011;8527;49.740;6.604;2024-03-23T14:26:12;2.83;;;0.77;;
16820;SDS011;8527;49.740;6.604;2024-03-23T14:31:09;3.00;;;0.75;;
16820;SDS011;8527;49.740;6.604;2024-03-23T14:36:05;2.25;;;0.88;;
16820;SDS011;8527;49.740;6.604;2024-03-23T14:41:02;2.73;;;1.10;;
16820;SDS011;8527;49.740;6.604;2024-03-23T14:46:10;5.83;;;0.90;;
16820;SDS011;8527;49.740;6.604;2024-03-23T14:51:10;6.13;;;1.40;;
16820;SDS011;8527;49.740;6.604;2024-03-23T14:56:06;4.30;;;1.05;;
16820;SDS011;8527;49.740;6.604;2024-03-23T15:01:03;8.63;;;1.30;;
16820;SDS011;8527;49.740;6.604;2024-03-23T15:06:07;5.57;;;1.42;;
16820;SDS011;8527;49.740;6.604;2024-03-23T15:11:02;5.18;;;1.60;;
16820;SDS011;8527;49.740;6.604;2024-03-23T15:16:00;6.47;;;1.90;;
16820;SDS011;8527;49.740;6.604;2024-03-23T15:20:56;4.70;;;1.48;;
16820;SDS011;8527;49.740;6.604;2024-03-23T15:25:56;3.75;;;1.02;;
16820;SDS011;8527;49.740;6.604;2024-03-23T15:30:53;2.88;;;1.20;;
16820;SDS011;8527;49.740;6.604;2024-03-23T15:35:58;5.72;;;1.65;;
16820;SDS011;8527;49.740;6.604;2024-03-23T15:40:56;0.90;;;0.80;;
16820;SDS011;8527;49.740;6.604;2024-03-23T15:45:55;1.98;;;1.05;;
16820;SDS011;8527;49.740;6.604;2024-03-23T15:50:51;9.55;;;1.70;;
16820;SDS011;8527;49.740;6.604;2024-03-23T15:55:52;4.50;;;1.70;;
16820;SDS011;8527;49.740;6.604;2024-03-23T16:00:54;7.68;;;1.80;;
16820;SDS011;8527;49.740;6.604;2024-03-23T16:05:50;1.63;;;1.02;;
16820;SDS011;8527;49.740;6.604;2024-03-23T16:10:47;5.00;;;1.63;;
16820;SDS011;8527;49.740;6.604;2024-03-23T16:15:53;5.07;;;1.20;;
16820;SDS011;8527;49.740;6.604;2024-03-23T16:21:02;2.33;;;1.23;;
16820;SDS011;8527;49.740;6.604;2024-03-23T16:25:58;2.58;;;0.65;;
16820;SDS011;8527;49.740;6.604;2024-03-23T16:30:58;2.08;;;1.10;;
16820;SDS011;8527;49.740;6.604;2024-03-23T16:35:55;3.90;;;1.88;;
16820;SDS011;8527;49.740;6.604;2024-03-23T16:40:55;6.88;;;3.05;;
16820;SDS011;8527;49.740;6.604;2024-03-23T16:45:55;5.00;;;2.00;;
16820;SDS011;8527;49.740;6.604;2024-03-23T16:50:58;13.57;;;4.63;;
16820;SDS011;8527;49.740;6.604;2024-03-23T16:55:57;1.95;;;0.90;;
16820;SDS011;8527;49.740;6.604;2024-03-23T17:00:54;2.85;;;0.88;;
16820;SDS011;8527;49.740;6.604;2024-03-23T17:11:41;19.45;;;8.90;;
16820;SDS011;8527;49.740;6.604;2024-03-23T17:16:37;7.93;;;3.45;;
16820;SDS011;8527;49.740;6.604;2024-03-23T17:21:33;3.17;;;1.25;;
16820;SDS011;8527;49.740;6.604;2024-03-23T17:26:33;2.80;;;0.88;;
16820;SDS011;8527;49.740;6.604;2024-03-23T17:31:31;2.40;;;0.73;;
16820;SDS011;8527;49.740;6.604;2024-03-23T17:36:27;1.33;;;0.90;;
16820;SDS011;8527;49.740;6.604;2024-03-23T17:41:23;2.67;;;0.98;;
16820;SDS011;8527;49.740;6.604;2024-03-23T17:46:20;1.73;;;0.30;;
16820;SDS011;8527;49.740;6.604;2024-03-23T17:51:18;1.70;;;0.80;;
16820;SDS011;8527;49.740;6.604;2024-03-23T17:56:17;5.40;;;1.80;;
16820;SDS011;8527;49.740;6.604;2024-03-23T18:01:13;3.88;;;1.05;;
16820;SDS011;8527;49.740;6.604;2024-03-23T18:06:09;2.67;;;1.63;;
16820;SDS011;8527;49.740;6.604;2024-03-23T18:11:11;3.25;;;1.90;;
16820;SDS011;8527;49.740;6.604;2024-03-23T18:16:10;4.38;;;1.92;;
16820;SDS011;8527;49.740;6.604;2024-03-23T18:21:08;3.78;;;2.05;;
16820;SDS011;8527;49.740;6.604;2024-03-23T18:26:04;8.02;;;2.00;;
16820;SDS011;8527;49.740;6.604;2024-03-23T18:31:03;4.57;;;1.80;;
16820;SDS011;8527;49.740;6.604;2024-03-23T18:35:59;4.93;;;2.17;;
16820;SDS011;8527;49.740;6.604;2024-03-23T18:40:55;4.28;;;1.33;;
16820;SDS011;8527;49.740;6.604;2024-03-23T18:45:52;3.40;;;1.50;;
16820;SDS011;8527;49.740;6.604;2024-03-23T18:50:51;4.38;;;1.50;;
16820;SDS011;8527;49.740;6.604;2024-03-23T18:55:51;4.05;;;1.30;;
16820;SDS011;8527;49.740;6.604;2024-03-23T19:00:48;2.42;;;1.67;;
16820;SDS011;8527;49.740;6.604;2024-03-23T19:05:55;2.47;;;1.40;;
16820;SDS011;8527;49.740;6.604;2024-03-23T19:10:53;5.90;;;1.70;;
16820;SDS011;8527;49.740;6.604;2024-03-23T19:15:49;4.30;;;1.70;;
16820;SDS011;8527;49.740;6.604;2024-03-23T19:20:50;4.32;;;1.48;;
16820;SDS011;8527;49.740;6.604;2024-03-23T19:25:54;3.33;;;2.03;;
16820;SDS011;8527;49.740;6.604;2024-03-23T19:30:51;6.57;;;2.20;;
16820;SDS011;8527;49.740;6.604;2024-03-23T19:35:53;4.55;;;2.60;;
16820;SDS011;8527;49.740;6.604;2024-03-23T19:40:56;2.53;;;1.80;;
16820;SDS011;8527;49.740;6.604;2024-03-23T19:45:53;2.75;;;2.10;;
16820;SDS011;8527;49.740;6.604;2024-03-23T19:50:55;2.33;;;1.65;;
16820;SDS011;8527;49.740;6.604;2024-03-23T19:55:57;5.05;;;1.98;;
16820;SDS011;8527;49.740;6.604;2024-03-23T20:00:57;5.03;;;2.05;;
16820;SDS011;8527;49.740;6.604;2024-03-23T20:05:59;4.63;;;2.03;;
16820;SDS011;8527;49.740;6.604;2024-03-23T20:10:57;5.50;;;2.78;;
16820;SDS011;8527;49.740;6.604;2024-03-23T20:15:56;5.75;;;2.42;;
16820;SDS011;8527;49.740;6.604;2024-03-23T20:20:52;4.07;;;2.35;;
16820;SDS011;8527;49.740;6.604;2024-03-23T20:25:51;4.82;;;2.47;;
16820;SDS011;8527;49.740;6.604;2024-03-23T20:30:54;6.40;;;2.30;;
16820;SDS011;8527;49.740;6.604;2024-03-23T20:35:51;7.03;;;2.30;;
16820;SDS011;8527;49.740;6.604;2024-03-23T20:40:50;4.60;;;2.07;;
16820;SDS011;8527;49.740;6.604;2024-03-23T20:45:57;3.60;;;2.17;;
16820;SDS011;8527;49.740;6.604;2024-03-23T20:51:00;3.22;;;2.05;;
16820;SDS011;8527;49.740;6.604;2024-03-23T20:56:06;6.35;;;2.60;;
16820;SDS011;8527;49.740;6.604;2024-03-23T21:01:07;4.88;;;2.03;;
16820;SDS011;8527;49.740;6.604;2024-03-23T21:06:05;5.45;;;2.38;;
16820;SDS011;8527;49.740;6.604;2024-03-23T21:11:02;2.20;;;2.00;;
16820;SDS011;8527;49.740;6.604;2024-03-23T21:15:58;4.65;;;2.00;;
16820;SDS011;8527;49.740;6.604;2024-03-23T21:20:57;4.13;;;1.73;;
16820;SDS011;8527;49.740;6.604;2024-03-23T21:25:55;2.63;;;1.48;;
16820;SDS011;8527;49.740;6.604;2024-03-23T21:30:51;1.55;;;1.45;;
16820;SDS011;8527;49.740;6.604;2024-03-23T21:35:53;3.45;;;1.40;;
16820;SDS011;8527;49.740;6.604;2024-03-23T21:40:58;1.55;;;1.27;;
16820;SDS011;8527;49.740;6.604;2024-03-23T21:46:00;1.67;;;1.38;;
16820;SDS011;8527;49.740;6.604;2024-03-23T21:50:58;1.77;;;1.60;;
16820;SDS011;8527;49.740;6.604;2024-03-23T21:55:54;2.70;;;1.60;;
16820;SDS011;8527;49.740;6.604;2024-03-23T22:00:53;5.63;;;1.85;;
16820;SDS011;8527;49.740;6.604;2024-03-23T22:05:52;1.83;;;1.73;;
16820;SDS011;8527;49.740;6.604;2024-03-23T22:10:57;5.18;;;2.42;;
16820;SDS011;8527;49.740;6.604;2024-03-23T22:15:58;2.85;;;1.70;;
16820;SDS011;8527;49.740;6.604;2024-03-23T22:20:57;3.35;;;1.60;;
16820;SDS011;8527;49.740;6.604;2024-03-23T22:25:53;2.47;;;1.67;;
16820;SDS011;8527;49.740;6.604;2024-03-23T22:31:01;3.33;;;1.73;;
16820;SDS011;8527;49.740;6.604;2024-03-23T22:35:59;3.95;;;1.83;;
16820;SDS011;8527;49.740;6.604;2024-03-23T22:40:55;1.58;;;1.48;;
16820;SDS011;8527;49.740;6.604;2024-03-23T22:45:54;2.80;;;1.60;;
16820;SDS011;8527;49.740;6.604;2024-03-23T22:50:54;1.77;;;1.47;;
16820;SDS011;8527;49.740;6.604;2024-03-23T22:55:51;2.13;;;1.50;;
16820;SDS011;8527;49.740;6.604;2024-03-23T23:00:54;3.13;;;1.30;;
16820;SDS011;8527;49.740;6.604;2024-03-23T23:06:02;2.22;;;1.25;;
16820;SDS011;8527;49.740;6.604;2024-03-23T23:11:00;1.40;;;1.30;;
16820;SDS011;8527;49.740;6.604;2024-03-23T23:15:55;1.60;;;1.38;;
16820;SDS011;8527;49.740;6.604;2024-03-23T23:20:51;1.67;;;1.40;;
16820;SDS011;8527;49.740;6.604;2024-03-23T23:25:51;2.67;;;1.60;;
16820;SDS011;8527;49.740;6.604;2024-03-23T23:30:54;1.80;;;1.50;;
16820;SDS011;8527;49.740;6.604;2024-03-23T23:35:50;2.40;;;1.60;;
16820;SDS011;8527;49.740;6.604;2024-03-23T23:40:46;3.75;;;1.30;;
16820;SDS011;8527;49.740;6.604;2024-03-23T23:45:45;2.60;;;1.35;;
16820;SDS011;8527;49.740;6.604;2024-03-23T23:50:40;4.15;;;1.20;;
16820;SDS011;8527;49.740;6.604;2024-03-23T23:55:43;3.05;;;0.95;;
